Ryoho Maru No.2 — JD2964 — position and weather

sailwx.info

Track history (hours):
 
Tides and Currents Weather Stations Pressure Air Temp Water Temp Dewpoint Dewpoint Depression Visibility Wind Speed Wind Dir Waves Ship Positions

Ryoho Maru No.2

Last reported at 2014-Dec-09 07:11 UTC. Time now 2014-Dec-17 21:39 UTC.
Position N 35°05' E 139°44'.
Warning: this ship's position is 8 days out of date.

Length 57 m; draft 4 m.

Type: Tanker. MMSI: 431001062.

Date/timePositionNaut miles runAvg speedWind from/ knotsBaromVisibWave heightAir tempDewpointWater temp
2014-Dec-09 07:11N 35°05' E 139°44'610.2
2014-Dec-09 06:33N 35°11' E 139°46'9 9.2
2014-Dec-09 05:33N 35°20' E 139°43'9 8.7
2014-Dec-09 04:33N 35°27' E 139°48'10 9.4
2014-Dec-09 03:29N 35°29' E 139°60'5 0.2
2014-Dec-08 04:33N 35°30' E 139°54'7 6.8
2014-Dec-08 03:32N 35°32' E 139°45'0 0.0
2014-Dec-08 02:26N 35°32' E 139°45'0 0.0
2014-Dec-08 01:29N 35°32' E 139°45'0 0.0
2014-Dec-08 00:32N 35°32' E 139°45'2 1.6
2014-Dec-07 23:32N 35°30' E 139°47'2 2.4
2014-Dec-07 22:31N 35°30' E 139°50'0 0.0
2014-Dec-07 21:28N 35°30' E 139°50'0 0.0
2014-Dec-07 20:31N 35°30' E 139°50'0 0.0
2014-Dec-07 19:31N 35°30' E 139°50'0 0.0
2014-Dec-07 18:31N 35°30' E 139°50'0 0.0
2014-Dec-07 17:31N 35°30' E 139°50'0 0.0
2014-Dec-07 16:31N 35°30' E 139°50'0 0.0
2014-Dec-07 15:31N 35°30' E 139°50'0 0.0
2014-Dec-07 14:31N 35°30' E 139°50'0 0.0
2014-Dec-07 13:28N 35°30' E 139°50'0 0.0
2014-Dec-07 12:28N 35°30' E 139°50'0 0.0
2014-Dec-07 11:19N 35°30' E 139°50'0 0.0
2014-Dec-07 10:28N 35°30' E 139°50'0 0.0
2014-Dec-07 09:28N 35°30' E 139°50'0 0.0
2014-Dec-07 08:25N 35°30' E 139°50'0 0.0
2014-Dec-07 07:31N 35°30' E 139°50'0 0.0
2014-Dec-07 06:31N 35°30' E 139°50'0 0.0
2014-Dec-07 05:25N 35°30' E 139°50'0 0.0
2014-Dec-07 04:28N 35°30' E 139°50'0 0.0
2014-Dec-07 03:28N 35°30' E 139°50'0 0.0
2014-Dec-07 02:31N 35°30' E 139°50'0 0.0
2014-Dec-07 01:31N 35°30' E 139°50'0 0.0
2014-Dec-07 00:31N 35°30' E 139°50'0 0.0
2014-Dec-06 23:31N 35°30' E 139°50'0 0.0
2014-Dec-06 22:31N 35°30' E 139°50'0 0.0
2014-Dec-06 21:31N 35°30' E 139°50'0 0.0
2014-Dec-06 20:28N 35°30' E 139°50'0 0.1
2014-Dec-06 19:31N 35°30' E 139°50'0 0.0
2014-Dec-06 18:31N 35°30' E 139°50'0 0.0
2014-Dec-06 17:31N 35°30' E 139°50'0 0.0
2014-Dec-06 16:31N 35°30' E 139°50'0 0.0
2014-Dec-06 15:31N 35°30' E 139°50'0 0.0
2014-Dec-06 14:28N 35°30' E 139°50'0 0.0
2014-Dec-06 13:19N 35°30' E 139°50'0 0.0
2014-Dec-06 12:28N 35°30' E 139°50'0 0.0
2014-Dec-06 11:22N 35°30' E 139°50'0 0.0
2014-Dec-06 10:31N 35°30' E 139°50'0 0.0
2014-Dec-06 09:25N 35°30' E 139°50'0 0.0
2014-Dec-06 08:33N 35°30' E 139°50'9 9.1
2014-Dec-06 07:33N 35°22' E 139°45'10 9.9
2014-Dec-06 06:32N 35°12' E 139°47'  
Track history (hours):
 
Tides and Currents Weather Stations Pressure Air Temp Water Temp Dewpoint Dewpoint Depression Visibility Wind Speed Wind Dir Waves Ship Positions

Ryoho Maru No.2

Last reported at 2014-Dec-09 07:11 UTC. Time now 2014-Dec-17 21:39 UTC.
Position N 35°05' E 139°44'.
Warning: this ship's position is 8 days out of date.

Length 57 m; draft 4 m.

Type: Tanker. MMSI: 431001062.

Date/timePositionNaut miles runAvg speedWind from/ knotsBaromVisibWave heightAir tempDewpointWater temp
2014-Dec-09 07:11N 35°05' E 139°44'610.2
2014-Dec-09 06:33N 35°11' E 139°46'9 9.2
2014-Dec-09 05:33N 35°20' E 139°43'9 8.7
2014-Dec-09 04:33N 35°27' E 139°48'10 9.4
2014-Dec-09 03:29N 35°29' E 139°60'5 0.2
2014-Dec-08 04:33N 35°30' E 139°54'7 6.8
2014-Dec-08 03:32N 35°32' E 139°45'0 0.0
2014-Dec-08 02:26N 35°32' E 139°45'0 0.0
2014-Dec-08 01:29N 35°32' E 139°45'0 0.0
2014-Dec-08 00:32N 35°32' E 139°45'2 1.6
2014-Dec-07 23:32N 35°30' E 139°47'2 2.4
2014-Dec-07 22:31N 35°30' E 139°50'0 0.0
2014-Dec-07 21:28N 35°30' E 139°50'0 0.0
2014-Dec-07 20:31N 35°30' E 139°50'0 0.0
2014-Dec-07 19:31N 35°30' E 139°50'0 0.0
2014-Dec-07 18:31N 35°30' E 139°50'0 0.0
2014-Dec-07 17:31N 35°30' E 139°50'0 0.0
2014-Dec-07 16:31N 35°30' E 139°50'0 0.0
2014-Dec-07 15:31N 35°30' E 139°50'0 0.0
2014-Dec-07 14:31N 35°30' E 139°50'0 0.0
2014-Dec-07 13:28N 35°30' E 139°50'0 0.0
2014-Dec-07 12:28N 35°30' E 139°50'0 0.0
2014-Dec-07 11:19N 35°30' E 139°50'0 0.0
2014-Dec-07 10:28N 35°30' E 139°50'0 0.0
2014-Dec-07 09:28N 35°30' E 139°50'0 0.0
2014-Dec-07 08:25N 35°30' E 139°50'0 0.0
2014-Dec-07 07:31N 35°30' E 139°50'0 0.0
2014-Dec-07 06:31N 35°30' E 139°50'0 0.0
2014-Dec-07 05:25N 35°30' E 139°50'0 0.0
2014-Dec-07 04:28N 35°30' E 139°50'0 0.0
2014-Dec-07 03:28N 35°30' E 139°50'0 0.0
2014-Dec-07 02:31N 35°30' E 139°50'0 0.0
2014-Dec-07 01:31N 35°30' E 139°50'0 0.0
2014-Dec-07 00:31N 35°30' E 139°50'0 0.0
2014-Dec-06 23:31N 35°30' E 139°50'0 0.0
2014-Dec-06 22:31N 35°30' E 139°50'0 0.0
2014-Dec-06 21:31N 35°30' E 139°50'0 0.0
2014-Dec-06 20:28N 35°30' E 139°50'0 0.1
2014-Dec-06 19:31N 35°30' E 139°50'0 0.0
2014-Dec-06 18:31N 35°30' E 139°50'0 0.0
2014-Dec-06 17:31N 35°30' E 139°50'0 0.0
2014-Dec-06 16:31N 35°30' E 139°50'0 0.0
2014-Dec-06 15:31N 35°30' E 139°50'0 0.0
2014-Dec-06 14:28N 35°30' E 139°50'0 0.0
2014-Dec-06 13:19N 35°30' E 139°50'0 0.0
2014-Dec-06 12:28N 35°30' E 139°50'0 0.0
2014-Dec-06 11:22N 35°30' E 139°50'0 0.0
2014-Dec-06 10:31N 35°30' E 139°50'0 0.0
2014-Dec-06 09:25N 35°30' E 139°50'0 0.0
2014-Dec-06 08:33N 35°30' E 139°50'9 9.1
2014-Dec-06 07:33N 35°22' E 139°45'10 9.9
2014-Dec-06 06:32N 35°12' E 139°47'  

Dump ship's entire track history